Main page
METAR-TAF:

METAR-TAF

Airports :

Kirkwall, Scotland

Kirkwall Airport

latitude: 58-57N, longitude: 002-54W, elevation: 21 m

Current weather observation

The report was made 18 minutes ago, at 23:50 UTC
Wind 5 kt from the South
Temperature 8°C
Humidity 93%
Pressure 1014 hPa
Visibility 10 km or more

METAR: EGPA 192350Z AUTO 17005KT 9999 NCD 08/07 Q1014

Time: 01:08 (00:08 UTC)

Forecast

The report was made 1 hour and 9 minutes ago, at 22:59 UTC
Forecast valid from 20 at 00 UTC to 20 at 09 UTC
Wind 8 kt from the South/Southeast
Visibility 10 km or more
Few clouds at a height of 2000 ft

TAF: EGPA 192259Z 2000/2009 15008KT 9999 FEW020

Weather observations and forecasts of more than 4000 airports (METAR and TAF reports).

The available stations are represented by yellow and red dots on the map.

Hover mouse over dot to see the name of the station.

Then click to see weather observations and forecasts.

To change the map : click on the green buttons with a black cross to zoom in, on the green button with a dash to zoom out, or on the green arrows for adjacent maps.


METAR-TAF: